Forside
METAR-TAF:

METAR-TAF

Lufthavne :

Flughafen Lübeck

Lübeck, Tyskland

Breddekreds: 53-49N, længdekreds: 010-42E, højde: 14 m

Aktuelle vejr

Denne rapport blev lavet for 37 minutter siden, kl. 22:50 UTC
Vind 6 kt fra vest, varierende mellem sydvest og vestnordvest
Temperatur 5°C
Fugtighed 100%
Tryk 1030 hPa
Sigt: 9000 m

METAR: EDHL 222250Z AUTO 26006KT 230V290 9000 // FEW009/// 05/05 Q1030

Tid: 00:27 (23:27 UTC)

Vejrudsigter

Denne rapport blev lavet for 6 timer og 27 minutter siden, kl. 17:00 UTC
Foreløbig gælder fra 22 på 18 UTC til 22 på 21 UTC
Vind 5 kt fra vest
Sigt 10 km eller mere
Spredte skyer i en højde af 700 ft
Brudte skyer i en højde af 2000 ft
Midlertidig
fra 22 på 18 UTC til 22 på 21 UTC
Sigt: 3500 m
Brudte skyer i en højde af 700 ft
let finregn

TAF: EDHL 221700Z 2218/2221 28005KT 9999 SCT007 BKN020 TEMPO 2218/2221 3500 -DZ BKN007

Vejrobservationer og prognoser fra mere end 4000 lufthavne (METAR og TAF).

De gule og røde prikker repræsenterer de meteorologiske stationer.

Flyt musen over at se navnet på stationen.

Så klik over at se vejr observationer og prognoser.

At skifte det kort: Klik på de grønne knapper med et sort kors for at zoome ind; på den grønne knap med en bindestreg for at zoome ud; eller på de grønne pile for tilstødende kort.


METAR-TAF: